Time;durP1;ratioP1;P1;durP2;ratioP2;P2;SDS_P1;SDS_P2;PMS_P1;PMS_P2;Temp;Humidity;BMP_temperature;BMP_pressure;BME280_temperature;BME280_humidity;BME280_pressure;Samples;Min_cycle;Max_cycle;Signal;HPM_P1;HPM_P2
2024/01/09 00:00:33;;;;;;;23.45;7.35;;;;;;;-8.78;67.05;103306.38;6282611;22;20015;-73
2024/01/09 00:03:00;;;;;;;16.27;6.05;;;;;;;-8.80;67.34;103306.31;6282848;22;20027;-73
2024/01/09 00:05:29;;;;;;;17.88;7.38;;;;;;;-8.80;67.51;103319.47;6284487;22;20022;-73
2024/01/09 00:07:56;;;;;;;21.98;7.72;;;;;;;-8.83;67.55;103321.97;6284025;22;20082;-73
2024/01/09 00:10:23;;;;;;;23.77;8.35;;;;;;;-8.84;67.33;103314.94;6283714;22;20023;-73
2024/01/09 00:12:49;;;;;;;20.75;7.18;;;;;;;-8.86;67.09;103318.38;6285006;22;20370;-72
2024/01/09 00:15:16;;;;;;;18.73;6.53;;;;;;;-8.88;67.35;103325.31;6284967;22;20024;-73
2024/01/09 00:17:43;;;;;;;16.65;6.93;;;;;;;-8.86;67.70;103311.38;6281738;22;20027;-73
2024/01/09 00:20:10;;;;;;;22.33;7.43;;;;;;;-8.90;67.72;103304.25;6281280;22;20025;-72
2024/01/09 00:22:37;;;;;;;21.50;7.07;;;;;;;-8.88;67.69;103322.69;6281060;22;20050;-72
2024/01/09 00:25:04;;;;;;;26.60;6.78;;;;;;;-8.88;67.49;103322.69;6283138;22;20028;-73
2024/01/09 00:27:30;;;;;;;24.95;7.05;;;;;;;-8.91;67.90;103327.81;6282342;22;20050;-73
2024/01/09 00:29:59;;;;;;;21.40;7.13;;;;;;;-8.93;67.81;103330.41;6283098;22;20024;-73
2024/01/09 00:32:27;;;;;;;17.27;7.07;;;;;;;-8.92;68.13;103331.31;6283568;22;20516;-73
2024/01/09 00:34:54;;;;;;;20.00;7.53;;;;;;;-8.93;68.20;103334.78;6284104;22;20033;-73
2024/01/09 00:37:20;;;;;;;22.00;7.03;;;;;;;-8.95;68.13;103331.22;6282927;22;20098;-72
2024/01/09 00:39:50;;;;;;;19.88;7.20;;;;;;;-8.95;68.09;103332.09;6277774;22;20024;-72
2024/01/09 00:42:17;;;;;;;17.73;6.97;;;;;;;-8.97;68.42;103333.78;6255563;23;20020;-72
2024/01/09 00:44:44;;;;;;;25.50;8.13;;;;;;;-8.98;68.95;103337.25;6255771;23;20016;-72
2024/01/09 00:47:11;;;;;;;23.88;8.35;;;;;;;-8.99;68.07;103339.84;6253781;23;20047;-72
2024/01/09 00:49:38;;;;;;;21.65;7.75;;;;;;;-9.01;69.00;103336.25;6253747;23;20024;-71
2024/01/09 00:52:05;;;;;;;24.02;7.85;;;;;;;-9.05;68.95;103336.16;6254502;23;20092;-71
2024/01/09 00:54:31;;;;;;;19.60;6.93;;;;;;;-9.00;68.77;103336.31;6253711;23;20447;-73
2024/01/09 00:56:59;;;;;;;19.40;7.53;;;;;;;-9.04;69.29;103342.31;6253089;23;20031;-73
2024/01/09 00:59:25;;;;;;;22.52;8.15;;;;;;;-9.04;69.25;103337.03;6251865;23;20398;-73
2024/01/09 01:01:52;;;;;;;24.73;7.60;;;;;;;-9.07;68.90;103332.59;6252618;23;20024;-72
2024/01/09 01:04:19;;;;;;;19.40;7.63;;;;;;;-9.06;69.10;103333.47;6252994;23;20123;-73
2024/01/09 01:06:45;;;;;;;23.17;8.15;;;;;;;-9.10;68.66;103332.44;6253293;23;20024;-73
2024/01/09 01:09:12;;;;;;;31.88;8.73;;;;;;;-9.06;68.89;103333.47;6254022;23;20031;-72
2024/01/09 01:11:39;;;;;;;23.10;8.73;;;;;;;-9.07;69.12;103336.94;6253785;23;20020;-72
2024/01/09 01:14:05;;;;;;;21.55;8.07;;;;;;;-9.11;69.56;103335.94;6252230;23;20024;-73
2024/01/09 01:16:32;;;;;;;27.30;8.43;;;;;;;-9.14;68.77;103335.84;6253950;23;20086;-73
2024/01/09 01:18:59;;;;;;;24.25;8.20;;;;;;;-9.15;69.74;103339.31;6255185;23;20055;-72
2024/01/09 01:21:26;;;;;;;21.73;8.65;;;;;;;-9.17;69.63;103340.09;6260085;23;20107;-72
2024/01/09 01:23:53;;;;;;;24.45;7.90;;;;;;;-9.16;69.70;103334.88;6259403;23;20032;-72
2024/01/09 01:26:20;;;;;;;22.45;7.95;;;;;;;-9.19;70.08;103337.44;6258842;23;20054;-72
2024/01/09 01:28:48;;;;;;;19.80;8.23;;;;;;;-9.20;70.33;103329.47;6260421;23;20020;-72
2024/01/09 01:31:14;;;;;;;19.70;8.02;;;;;;;-9.21;69.59;103341.72;6261241;23;20019;-71
2024/01/09 01:33:41;;;;;;;21.98;8.52;;;;;;;-9.25;69.73;103337.19;6261441;23;20051;-72
2024/01/09 01:36:15;;;;;;;23.10;7.85;;;;;;;-9.28;70.10;103328.28;6263263;23;20016;-72
2024/01/09 01:38:43;;;;;;;27.70;9.35;;;;;;;-9.29;70.56;103339.66;6263366;23;20024;-71
2024/01/09 01:41:10;;;;;;;23.77;8.57;;;;;;;-9.30;70.32;103332.59;6262016;22;20024;-70
2024/01/09 01:43:36;;;;;;;25.70;8.90;;;;;;;-9.36;70.37;103330.72;6260951;23;20517;-70
2024/01/09 01:46:04;;;;;;;25.67;8.75;;;;;;;-9.45;70.38;103339.16;6262984;23;20014;-71
2024/01/09 01:48:32;;;;;;;22.35;7.68;;;;;;;-9.39;70.87;103333.22;6263085;23;20020;-71
2024/01/09 01:51:00;;;;;;;26.02;9.10;;;;;;;-9.35;70.31;103336.00;6263766;23;20431;-71
2024/01/09 01:53:31;;;;;;;26.27;9.45;;;;;;;-9.45;71.11;103333.00;6265054;23;20035;-71
2024/01/09 01:55:57;;;;;;;27.65;8.27;;;;;;;-9.44;70.97;103334.78;6265130;23;20024;-71
2024/01/09 01:58:26;;;;;;;26.63;8.68;;;;;;;-9.48;70.43;103332.88;6265313;23;20074;-71
2024/01/09 02:00:54;;;;;;;26.75;9.38;;;;;;;-9.48;70.76;103338.13;6264399;23;20056;-72
2024/01/09 02:03:21;;;;;;;33.85;8.60;;;;;;;-9.48;71.67;103346.91;6262935;23;20024;-71
2024/01/09 02:09:30;;;;;;;22.70;8.15;;;;;;;-9.60;71.73;103349.09;6221271;23;20023;-71
2024/01/09 02:11:57;;;;;;;25.90;9.05;;;;;;;-9.66;71.94;103333.09;6263168;23;20035;-71
2024/01/09 02:14:24;;;;;;;25.98;9.07;;;;;;;-9.69;72.18;103338.25;6263479;23;20020;-71
2024/01/09 02:16:50;;;;;;;21.30;7.75;;;;;;;-9.60;72.01;103337.69;6264873;23;20024;-69
2024/01/09 02:19:17;;;;;;;27.02;9.38;;;;;;;-9.63;71.67;103338.50;6262110;23;20047;-72
2024/01/09 02:21:43;;;;;;;25.20;8.52;;;;;;;-9.61;71.85;103339.44;6264500;23;20096;-71
2024/01/09 02:24:10;;;;;;;27.35;9.30;;;;;;;-9.69;72.10;103341.75;6262975;23;20063;-71
2024/01/09 02:26:44;;;;;;;28.13;8.93;;;;;;;-9.66;71.99;103335.72;6263522;23;20064;-71
2024/01/09 02:29:32;;;;;;;26.63;8.55;;;;;;;-9.63;72.94;103336.75;6263449;23;20028;-71
2024/01/09 02:32:02;;;;;;;27.17;8.88;;;;;;;-9.79;72.53;103341.38;6237905;23;20416;-71
2024/01/09 02:34:31;;;;;;;25.15;8.75;;;;;;;-9.83;72.81;103335.13;6266328;23;20023;-72
2024/01/09 02:37:00;;;;;;;24.15;9.25;;;;;;;-9.90;73.08;103335.72;6267265;23;20035;-71
2024/01/09 02:39:31;;;;;;;27.00;9.20;;;;;;;-9.93;73.17;103343.50;6265845;22;20020;-70
2024/01/09 02:41:58;;;;;;;28.65;8.50;;;;;;;-9.91;73.47;103347.06;6264844;23;20098;-71
2024/01/09 02:44:24;;;;;;;28.25;9.40;;;;;;;-9.94;73.47;103346.94;6266011;23;20067;-71
2024/01/09 02:46:51;;;;;;;24.85;9.23;;;;;;;-9.85;74.03;103341.13;6265798;23;20021;-69
2024/01/09 02:49:18;;;;;;;26.98;9.52;;;;;;;-9.92;74.11;103335.66;6267014;23;20028;-69
2024/01/09 02:51:44;;;;;;;32.20;10.90;;;;;;;-9.99;73.68;103338.00;6266420;23;20024;-71
2024/01/09 02:54:11;;;;;;;28.95;9.88;;;;;;;-10.02;73.96;103340.53;6265827;23;20024;-71
2024/01/09 02:56:39;;;;;;;28.45;9.55;;;;;;;-10.02;73.79;103337.91;6262679;23;20031;-71
2024/01/09 02:59:05;;;;;;;29.70;10.20;;;;;;;-10.05;74.04;103340.38;6262453;23;20028;-72
2024/01/09 03:01:32;;;;;;;32.80;10.60;;;;;;;-10.08;74.39;103342.91;6262431;23;20088;-72
2024/01/09 03:03:59;;;;;;;33.42;10.98;;;;;;;-10.09;74.07;103335.84;6260708;23;20024;-71
2024/01/09 03:06:26;;;;;;;25.83;9.75;;;;;;;-10.02;74.49;103345.78;6259069;23;20103;-72
2024/01/09 03:08:53;;;;;;;29.02;10.02;;;;;;;-10.05;74.52;103348.25;6259066;23;20054;-71
2024/01/09 03:11:20;;;;;;;28.90;10.52;;;;;;;-10.08;74.91;103356.00;6253229;23;20031;-72
2024/01/09 03:13:47;;;;;;;29.38;10.55;;;;;;;-10.13;74.86;103350.56;6248683;23;20451;-69
2024/01/09 03:16:14;;;;;;;33.60;10.88;;;;;;;-10.11;74.85;103354.19;6249313;23;20020;-71
2024/01/09 03:18:43;;;;;;;32.63;9.85;;;;;;;-10.14;75.05;103355.75;6249185;23;20316;-71
2024/01/09 03:21:11;;;;;;;27.35;10.57;;;;;;;-10.20;75.35;103348.56;6246613;23;20066;-71
2024/01/09 03:23:37;;;;;;;30.27;9.57;;;;;;;-10.25;74.94;103351.00;6248133;23;20028;-71
2024/01/09 03:26:04;;;;;;;26.63;10.48;;;;;;;-10.26;75.57;103349.22;6248604;23;20354;-71
2024/01/09 03:28:31;;;;;;;28.00;10.60;;;;;;;-10.20;76.02;103344.22;6248574;23;20020;-71
2024/01/09 03:30:57;;;;;;;25.65;10.85;;;;;;;-10.25;75.77;103351.00;6247724;23;20028;-71
2024/01/09 03:33:24;;;;;;;30.50;10.57;;;;;;;-10.25;75.82;103345.75;6247642;23;20050;-70
2024/01/09 03:35:50;;;;;;;29.58;10.60;;;;;;;-10.24;75.57;103355.41;6245796;23;20020;-70
2024/01/09 03:38:17;;;;;;;30.75;10.10;;;;;;;-10.20;75.61;103354.72;6248829;23;20020;-71
2024/01/09 03:40:44;;;;;;;33.40;10.80;;;;;;;-10.26;75.84;103354.47;6248452;22;20072;-72
2024/01/09 03:43:10;;;;;;;27.35;11.02;;;;;;;-10.32;75.75;103348.97;6245680;23;20024;-72
2024/01/09 03:45:37;;;;;;;35.75;11.45;;;;;;;-10.35;75.69;103343.59;6245274;23;20086;-71
2024/01/09 03:48:04;;;;;;;32.13;10.60;;;;;;;-10.29;76.04;103349.09;6248342;23;20055;-71
2024/01/09 03:50:30;;;;;;;29.10;9.45;;;;;;;-10.34;76.11;103344.50;6248107;23;20016;-72
2024/01/09 03:52:57;;;;;;;29.58;9.98;;;;;;;-10.35;76.07;103348.84;6246901;23;20396;-71
2024/01/09 03:55:26;;;;;;;26.65;10.02;;;;;;;-10.30;76.42;103341.19;6248995;23;20328;-72
2024/01/09 03:57:52;;;;;;;30.13;11.15;;;;;;;-10.29;76.04;103342.97;6247779;23;20027;-71
2024/01/09 04:00:19;;;;;;;26.80;10.50;;;;;;;-10.23;77.20;103344.06;6248964;23;20080;-71
2024/01/09 04:02:46;;;;;;;33.80;11.20;;;;;;;-10.30;75.89;103349.03;6249745;23;20094;-72
2024/01/09 04:05:12;;;;;;;30.92;10.95;;;;;;;-10.40;76.38;103349.47;6249246;23;20034;-71
2024/01/09 04:07:40;;;;;;;32.38;10.40;;;;;;;-10.39;76.51;103341.69;6250439;23;20024;-72
2024/01/09 04:10:07;;;;;;;31.80;11.20;;;;;;;-10.39;76.44;103339.09;6249390;23;20024;-72
2024/01/09 04:12:33;;;;;;;29.02;10.45;;;;;;;-10.46;76.98;103344.00;6247897;23;20488;-73
2024/01/09 04:15:00;;;;;;;29.88;11.25;;;;;;;-10.41;77.36;103332.84;6247226;23;20481;-72
2024/01/09 04:17:27;;;;;;;33.80;11.40;;;;;;;-10.43;76.50;103339.78;6246164;23;20405;-72
2024/01/09 04:19:54;;;;;;;33.03;10.88;;;;;;;-10.52;77.05;103339.41;6246673;23;20351;-70
2024/01/09 04:22:21;;;;;;;31.02;11.00;;;;;;;-10.53;77.01;103342.88;6247102;23;20082;-71
2024/01/09 04:24:48;;;;;;;28.45;11.35;;;;;;;-10.58;76.68;103341.81;6246596;23;20034;-70
2024/01/09 04:27:14;;;;;;;32.25;9.75;;;;;;;-10.60;77.49;103340.81;6247362;23;20028;-72
2024/01/09 04:29:41;;;;;;;33.83;10.30;;;;;;;-10.58;77.33;103344.41;6247669;23;20021;-72
2024/01/09 04:32:07;;;;;;;42.65;12.10;;;;;;;-10.63;77.81;103348.56;6246434;23;20031;-72
2024/01/09 04:34:36;;;;;;;35.80;11.98;;;;;;;-10.63;78.13;103340.69;6243784;23;20093;-72
2024/01/09 04:37:03;;;;;;;35.97;10.73;;;;;;;-10.67;77.83;103355.44;6246049;23;20111;-72
2024/01/09 04:39:29;;;;;;;29.27;10.52;;;;;;;-10.70;78.46;103354.38;6245610;22;20032;-72
2024/01/09 04:41:56;;;;;;;34.42;11.02;;;;;;;-10.67;77.90;103351.91;6245485;23;20020;-71
2024/01/09 04:44:23;;;;;;;41.25;12.30;;;;;;;-10.71;78.21;103363.09;6245177;23;20020;-71
2024/01/09 04:46:50;;;;;;;29.25;10.57;;;;;;;-10.69;79.20;103350.94;6217275;23;20031;-72
2024/01/09 04:49:16;;;;;;;39.08;13.02;;;;;;;-10.54;78.77;103338.44;6244307;23;20355;-72
2024/01/09 04:51:44;;;;;;;37.13;11.75;;;;;;;-10.59;78.11;103339.97;6243579;23;20450;-72
2024/01/09 04:54:10;;;;;;;32.67;11.27;;;;;;;-10.74;78.26;103340.28;6242576;23;20102;-72
2024/01/09 04:56:37;;;;;;;34.22;11.68;;;;;;;-10.74;78.59;103337.66;6241748;23;20024;-72
2024/01/09 04:59:03;;;;;;;35.13;12.43;;;;;;;-10.76;78.52;103339.31;6242410;23;20020;-72
2024/01/09 05:01:30;;;;;;;35.50;12.25;;;;;;;-10.74;78.91;103336.75;6243018;23;20023;-71
2024/01/09 05:03:56;;;;;;;36.40;12.15;;;;;;;-10.78;78.82;103335.72;6242686;23;20442;-71
2024/01/09 05:06:24;;;;;;;39.17;11.50;;;;;;;-10.77;78.72;103338.44;6242231;23;20016;-71
2024/01/09 05:08:51;;;;;;;31.33;11.43;;;;;;;-10.78;78.88;103349.72;6242917;23;20020;-71
2024/01/09 05:11:18;;;;;;;35.08;12.02;;;;;;;-10.78;78.78;103351.44;6243325;23;20031;-69
2024/01/09 05:13:46;;;;;;;35.45;11.98;;;;;;;-10.82;78.61;103354.78;6243820;23;20091;-72
2024/01/09 05:16:13;;;;;;;35.08;10.70;;;;;;;-10.78;79.41;103352.34;6243136;23;20051;-71
2024/01/09 05:18:40;;;;;;;32.53;10.65;;;;;;;-10.82;79.20;103350.44;6243750;23;20047;-71
2024/01/09 05:21:08;;;;;;;34.05;12.10;;;;;;;-10.83;78.96;103350.38;6243778;23;20131;-71
2024/01/09 05:23:35;;;;;;;37.58;11.43;;;;;;;-10.81;79.37;103351.31;6243688;23;20027;-72
2024/01/09 05:26:01;;;;;;;33.63;11.68;;;;;;;-10.79;79.00;103352.28;6243879;23;20028;-71
2024/01/09 05:28:28;;;;;;;35.65;12.15;;;;;;;-10.80;78.87;103354.00;6245470;23;20070;-71
2024/01/09 05:30:55;;;;;;;39.08;12.57;;;;;;;-10.74;78.42;103353.38;6245373;23;20025;-71
2024/01/09 05:33:22;;;;;;;38.65;12.07;;;;;;;-10.76;78.47;103344.56;6245327;23;20020;-71
2024/01/09 05:35:49;;;;;;;37.55;12.10;;;;;;;-10.75;79.04;103348.06;6219081;23;20027;-72
2024/01/09 05:38:15;;;;;;;39.97;11.82;;;;;;;-10.78;78.34;103351.44;6247980;23;20024;-71
2024/01/09 05:40:45;;;;;;;30.98;11.55;;;;;;;-10.67;78.75;103344.94;6245695;22;20019;-71
2024/01/09 05:43:12;;;;;;;36.28;11.90;;;;;;;-10.79;79.03;103340.06;6245481;23;20028;-71
2024/01/09 05:45:41;;;;;;;41.63;13.50;;;;;;;-10.82;78.70;103339.94;6245522;23;20020;-71
2024/01/09 05:48:08;;;;;;;38.63;12.95;;;;;;;-10.86;79.35;103338.03;6219423;23;20024;-71
2024/01/09 05:50:35;;;;;;;35.33;12.38;;;;;;;-10.71;78.93;103344.72;6245222;23;20016;-71
2024/01/09 05:53:02;;;;;;;40.85;11.60;;;;;;;-10.84;78.83;103343.34;6243702;23;20517;-71
2024/01/09 05:55:29;;;;;;;34.63;11.48;;;;;;;-10.87;79.32;103348.44;6244535;23;20024;-71
2024/01/09 05:57:56;;;;;;;35.00;12.18;;;;;;;-10.89;79.35;103348.38;6243028;23;20344;-71
2024/01/09 06:00:22;;;;;;;36.80;12.50;;;;;;;-10.90;79.46;103351.84;6244425;23;20020;-71
2024/01/09 06:02:49;;;;;;;39.85;11.60;;;;;;;-10.93;79.08;103341.22;6243800;23;20078;-71
2024/01/09 06:05:16;;;;;;;36.60;13.07;;;;;;;-10.95;79.58;103360.34;6245249;23;20402;-71
2024/01/09 06:07:42;;;;;;;39.75;11.90;;;;;;;-10.94;79.42;103351.66;6243286;23;20020;-71
2024/01/09 06:10:09;;;;;;;42.40;12.13;;;;;;;-10.95;79.11;103352.50;6241086;23;20020;-71
2024/01/09 06:12:36;;;;;;;38.92;12.45;;;;;;;-10.93;79.30;103349.09;6242906;23;20442;-71
2024/01/09 06:15:03;;;;;;;43.17;13.23;;;;;;;-10.88;79.19;103354.50;6242712;23;20028;-71
2024/01/09 06:17:30;;;;;;;36.13;13.15;;;;;;;-10.92;79.09;103363.09;6242187;23;20079;-71
2024/01/09 06:19:57;;;;;;;43.60;12.85;;;;;;;-10.83;79.78;103353.88;6242809;23;20036;-70
2024/01/09 06:22:24;;;;;;;35.83;13.68;;;;;;;-10.87;79.10;103357.19;6243556;23;20118;-71
2024/01/09 06:24:50;;;;;;;43.45;13.48;;;;;;;-10.81;79.46;103354.84;6215919;23;20031;-70
2024/01/09 06:27:17;;;;;;;41.05;14.18;;;;;;;-10.78;78.81;103360.19;6243069;23;20343;-71
2024/01/09 06:29:43;;;;;;;43.33;15.02;;;;;;;-10.80;79.10;103355.72;6242586;23;20024;-71
2024/01/09 06:32:10;;;;;;;41.20;13.93;;;;;;;-10.84;78.80;103349.47;6242710;23;20032;-71
2024/01/09 06:34:37;;;;;;;42.03;13.98;;;;;;;-10.75;80.08;103355.94;6215294;23;20016;-71
2024/01/09 06:37:04;;;;;;;37.03;13.10;;;;;;;-10.89;79.68;103353.63;6241504;23;20083;-71
2024/01/09 06:39:30;;;;;;;39.78;13.70;;;;;;;-10.93;79.76;103356.97;6241516;22;20402;-71
2024/01/09 06:41:57;;;;;;;44.90;14.90;;;;;;;-10.95;79.73;103365.59;6242163;23;20024;-71
2024/01/09 06:44:23;;;;;;;40.08;13.75;;;;;;;-10.95;79.92;103368.22;6242666;23;20020;-70
2024/01/09 06:46:50;;;;;;;40.95;13.73;;;;;;;-10.97;80.28;103364.59;6240967;23;20065;-70
2024/01/09 06:49:17;;;;;;;41.83;13.50;;;;;;;-11.03;79.98;103367.00;6241727;23;20020;-70
2024/01/09 06:51:44;;;;;;;44.40;13.50;;;;;;;-10.99;80.53;103361.94;6240236;23;20346;-70
2024/01/09 06:54:11;;;;;;;44.08;14.10;;;;;;;-10.95;80.64;103369.09;6240855;23;20477;-71
2024/01/09 06:56:43;;;;;;;48.20;13.48;;;;;;;-10.93;80.16;103372.69;6215034;23;20016;-72
2024/01/09 06:59:10;;;;;;;42.17;14.50;;;;;;;-10.95;80.13;103369.09;6239454;23;20082;-71
2024/01/09 07:01:38;;;;;;;47.00;14.10;;;;;;;-10.96;80.11;103369.91;6240390;23;20427;-69
2024/01/09 07:04:06;;;;;;;41.85;14.48;;;;;;;-10.96;80.11;103367.28;6240936;23;20328;-70
2024/01/09 07:06:33;;;;;;;47.60;15.30;;;;;;;-10.95;80.26;103368.22;6239183;23;20030;-70
2024/01/09 07:08:59;;;;;;;52.55;14.70;;;;;;;-10.97;79.97;103364.59;6239471;23;20028;-70
2024/01/09 07:11:26;;;;;;;44.03;14.80;;;;;;;-10.86;79.66;103376.47;6240703;23;20024;-70
2024/01/09 07:13:53;;;;;;;36.05;13.43;;;;;;;-10.92;80.05;103369.22;6240281;23;20024;-71
2024/01/09 07:16:20;;;;;;;46.75;15.32;;;;;;;-10.95;80.05;103373.47;6213716;23;20024;-71
2024/01/09 07:18:47;;;;;;;48.35;14.60;;;;;;;-10.98;80.16;103373.31;6242090;23;20031;-72
2024/01/09 07:21:14;;;;;;;43.63;15.13;;;;;;;-10.95;80.31;103378.69;6242608;23;20020;-72
2024/01/09 07:23:41;;;;;;;45.25;15.13;;;;;;;-10.86;79.77;103382.59;6211403;23;20024;-69
2024/01/09 07:26:08;;;;;;;55.30;16.40;;;;;;;-10.79;79.04;103376.75;6239729;23;20028;-70
2024/01/09 07:28:34;;;;;;;50.72;15.18;;;;;;;-10.89;79.95;103379.81;6213231;23;20016;-69
2024/01/09 07:31:02;;;;;;;45.28;15.50;;;;;;;-10.93;79.42;103383.16;6239675;23;20055;-70
2024/01/09 07:33:29;;;;;;;45.22;14.73;;;;;;;-10.97;80.27;103373.34;6238780;23;20032;-70
2024/01/09 07:35:58;;;;;;;46.75;15.27;;;;;;;-11.03;79.54;103378.38;6239380;23;20024;-70
2024/01/09 07:38:24;;;;;;;44.70;14.98;;;;;;;-11.09;80.33;103381.59;6239533;23;20070;-69
2024/01/09 07:40:52;;;;;;;42.35;14.43;;;;;;;-11.02;80.28;103382.78;6238184;22;20088;-70
2024/01/09 07:43:20;;;;;;;40.17;13.90;;;;;;;-11.04;80.22;103389.69;6239140;23;20020;-70
2024/01/09 07:45:47;;;;;;;44.10;15.40;;;;;;;-11.04;80.68;103391.41;6242024;23;20077;-70
2024/01/09 07:48:14;;;;;;;48.88;15.25;;;;;;;-11.11;80.54;103385.00;6240168;23;20027;-70
2024/01/09 07:50:42;;;;;;;45.65;14.52;;;;;;;-11.09;80.25;103392.09;6240193;23;20050;-69
2024/01/09 07:53:08;;;;;;;52.42;15.50;;;;;;;-11.05;80.04;103393.09;6239005;23;20032;-69
2024/01/09 07:55:35;;;;;;;41.10;15.05;;;;;;;-11.02;79.92;103392.34;6239432;23;20110;-71
2024/01/09 07:58:02;;;;;;;41.55;14.93;;;;;;;-11.03;80.17;103396.72;6239138;23;20020;-71
2024/01/09 08:00:28;;;;;;;51.08;14.77;;;;;;;-11.00;80.62;103404.69;6240765;23;20028;-71
2024/01/09 08:02:55;;;;;;;45.58;14.05;;;;;;;-10.94;79.94;103407.59;6240343;23;20024;-71
2024/01/09 08:05:22;;;;;;;53.03;16.58;;;;;;;-11.06;79.58;103405.31;6240831;23;20016;-71
2024/01/09 08:07:49;;;;;;;44.67;16.25;;;;;;;-10.98;79.27;103415.22;6240094;23;20026;-68
2024/01/09 08:10:16;;;;;;;51.15;16.95;;;;;;;-10.99;79.13;103408.19;6212166;23;20102;-69
2024/01/09 08:12:42;;;;;;;54.08;16.00;;;;;;;-10.97;78.39;103407.44;6238422;23;20028;-71
2024/01/09 08:15:09;;;;;;;46.95;17.42;;;;;;;-10.94;78.89;103406.69;6238884;23;20028;-69
2024/01/09 08:17:36;;;;;;;60.15;18.60;;;;;;;-10.90;78.87;103411.22;6238630;23;20016;-69
2024/01/09 08:20:03;;;;;;;72.30;17.83;;;;;;;-10.91;78.05;103412.94;6238413;23;20368;-71
2024/01/09 08:22:30;;;;;;;46.72;15.73;;;;;;;-10.94;76.85;103414.56;6238748;23;20201;-69
2024/01/09 08:24:57;;;;;;;50.95;17.08;;;;;;;-10.91;77.89;103410.31;6237539;23;20020;-69
2024/01/09 08:27:23;;;;;;;52.20;17.58;;;;;;;-10.83;77.13;103410.66;6237449;23;20024;-69
2024/01/09 08:29:50;;;;;;;52.40;16.95;;;;;;;-10.73;77.74;103411.94;6237609;23;20020;-69
2024/01/09 08:32:18;;;;;;;53.00;18.48;;;;;;;-10.76;77.83;103407.47;6238019;23;20020;-70
2024/01/09 08:34:45;;;;;;;56.75;18.45;;;;;;;-10.75;77.80;103414.50;6238498;23;20024;-69
2024/01/09 08:37:12;;;;;;;57.47;18.70;;;;;;;-10.70;77.19;103406.81;6237217;23;20088;-70
2024/01/09 08:39:38;;;;;;;49.80;17.15;;;;;;;-10.69;76.37;103413.84;6238548;22;20028;-70
2024/01/09 08:42:05;;;;;;;50.97;19.15;;;;;;;-10.74;76.04;103400.56;6237930;23;20024;-70
2024/01/09 08:44:32;;;;;;;50.97;17.63;;;;;;;-10.69;76.58;103406.88;6237802;23;20079;-71
2024/01/09 08:46:59;;;;;;;53.50;18.15;;;;;;;-10.67;76.17;103401.72;6239841;23;20047;-69
2024/01/09 08:49:25;;;;;;;64.38;18.48;;;;;;;-10.62;75.82;103398.44;6238530;23;20016;-69
2024/01/09 08:51:52;;;;;;;60.97;18.88;;;;;;;-10.65;75.42;103405.31;6238989;23;20051;-69
2024/01/09 08:54:20;;;;;;;57.25;18.83;;;;;;;-10.56;76.15;103396.09;6239672;23;20028;-69
2024/01/09 08:56:47;;;;;;;50.92;18.02;;;;;;;-10.52;75.34;103399.72;6213524;23;20103;-70
2024/01/09 08:59:14;;;;;;;67.05;20.17;;;;;;;-10.38;75.21;103395.94;6238112;23;20030;-70
2024/01/09 09:01:40;;;;;;;54.10;18.98;;;;;;;-10.38;75.56;103401.19;6239857;23;20124;-71
2024/01/09 09:04:08;;;;;;;50.53;18.15;;;;;;;-10.31;74.87;103397.97;6243115;23;20027;-71
2024/01/09 09:06:35;;;;;;;56.88;18.08;;;;;;;-10.31;75.17;103395.34;6241808;23;20015;-71
2024/01/09 09:09:02;;;;;;;55.75;18.80;;;;;;;-10.18;74.35;103391.50;6241631;23;20098;-71
2024/01/09 09:11:29;;;;;;;51.70;18.45;;;;;;;-10.13;74.92;103391.66;6241101;23;20019;-71
2024/01/09 09:13:55;;;;;;;54.90;18.85;;;;;;;-10.28;75.19;103392.88;6241113;23;20046;-70
2024/01/09 09:16:22;;;;;;;53.65;17.50;;;;;;;-10.38;74.80;103409.06;6241072;23;20086;-69
2024/01/09 09:18:48;;;;;;;52.28;17.70;;;;;;;-10.17;74.50;103400.25;6240788;23;20031;-69
2024/01/09 09:21:17;;;;;;;51.13;19.17;;;;;;;-9.98;73.98;103398.44;6240867;23;20098;-70
2024/01/09 09:23:44;;;;;;;52.08;17.65;;;;;;;-10.03;74.19;103401.69;6241053;23;20016;-72
2024/01/09 09:26:12;;;;;;;59.53;18.80;;;;;;;-10.09;74.74;103398.84;6240702;23;20024;-72
2024/01/09 09:28:40;;;;;;;52.67;19.13;;;;;;;-10.18;74.38;103391.50;6240254;23;20143;-72
2024/01/09 09:31:27;;;;;;;54.42;19.23;;;;;;;-9.89;74.00;103395.25;6239622;23;20099;-70
2024/01/09 09:33:55;;;;;;;59.60;18.80;;;;;;;-10.04;73.98;103399.91;6241167;23;20103;-71
2024/01/09 09:36:22;;;;;;;59.70;18.50;;;;;;;-10.07;74.65;103394.53;6241835;23;20328;-69
2024/01/09 09:38:52;;;;;;;61.67;20.27;;;;;;;-9.97;74.63;103394.06;6240299;23;20447;-68
2024/01/09 09:41:20;;;;;;;47.77;19.10;;;;;;;-9.97;74.67;103392.34;6239279;22;20034;-69
2024/01/09 09:43:56;;;;;;;58.80;18.88;;;;;;;-9.81;73.99;103385.06;6239746;23;20031;-70
2024/01/09 09:46:27;;;;;;;56.65;19.83;;;;;;;-9.74;74.13;103388.00;6238129;23;20304;-70
2024/01/09 09:48:55;;;;;;;45.67;18.40;;;;;;;-9.76;73.64;103381.75;6239627;23;20036;-70
2024/01/09 09:51:25;;;;;;;45.90;18.40;;;;;;;-9.49;72.97;103381.00;6238923;23;20015;-70
2024/01/09 09:53:54;;;;;;;52.97;19.27;;;;;;;-9.46;72.74;103383.78;6239556;23;20330;-70
2024/01/09 09:56:24;;;;;;;52.15;20.08;;;;;;;-9.55;72.99;103383.44;6238812;23;20324;-70
2024/01/09 09:58:51;;;;;;;54.92;18.13;;;;;;;-9.39;72.08;103375.25;6240654;23;20347;-70
2024/01/09 10:01:20;;;;;;;63.92;20.15;;;;;;;-8.96;71.50;103376.75;6240297;23;20036;-71
2024/01/09 10:04:02;;;;;;;52.72;19.60;;;;;;;-8.69;69.68;103367.16;6242156;23;20016;-71
2024/01/09 10:06:31;;;;;;;52.53;19.10;;;;;;;-8.05;66.83;103374.50;6242161;23;20433;-71
2024/01/09 10:09:01;;;;;;;59.10;18.88;;;;;;;-7.72;65.72;103360.56;6241946;23;20050;-71
2024/01/09 10:11:29;;;;;;;55.35;19.15;;;;;;;-6.62;63.08;103360.91;6241310;23;20354;-70
2024/01/09 10:13:56;;;;;;;45.60;16.95;;;;;;;-6.76;62.72;103355.28;6241355;23;20028;-71
2024/01/09 10:16:22;;;;;;;53.78;18.55;;;;;;;-6.04;59.86;103352.63;6215309;23;20027;-71
2024/01/09 10:18:49;;;;;;;47.97;19.73;;;;;;;-6.01;58.63;103362.38;6240262;23;20028;-70
2024/01/09 10:21:16;;;;;;;45.40;18.20;;;;;;;-6.82;60.71;103358.66;6239770;23;20044;-71
2024/01/09 10:23:43;;;;;;;51.72;19.80;;;;;;;-5.89;58.91;103354.72;6240381;23;20095;-70
2024/01/09 10:26:13;;;;;;;55.22;20.27;;;;;;;-6.65;60.04;103350.28;6239403;23;20101;-70
2024/01/09 10:28:41;;;;;;;52.53;19.48;;;;;;;-6.55;60.54;103350.53;6239096;23;20020;-71
2024/01/09 10:31:08;;;;;;;46.50;17.83;;;;;;;-6.64;60.38;103346.78;6240496;23;20035;-71
2024/01/09 10:33:42;;;;;;;39.22;16.90;;;;;;;-6.97;61.13;103347.72;6239894;23;20099;-73
2024/01/09 10:36:10;;;;;;;47.05;17.65;;;;;;;-7.38;62.09;103350.16;6240982;23;20108;-73
2024/01/09 10:38:37;;;;;;;42.47;17.45;;;;;;;-6.06;58.54;103348.16;6240254;23;20031;-70
2024/01/09 10:41:18;;;;;;;52.80;18.50;;;;;;;-5.96;57.41;103348.41;6263563;22;20023;-72
2024/01/09 10:43:46;;;;;;;43.75;17.35;;;;;;;-6.37;58.43;103346.56;6272947;22;20452;-72
2024/01/09 10:46:14;;;;;;;44.53;18.25;;;;;;;-5.51;57.20;103344.94;6273718;22;20447;-73
2024/01/09 10:48:41;;;;;;;45.63;17.85;;;;;;;-5.82;56.84;103342.53;6272637;22;20016;-71
2024/01/09 10:51:11;;;;;;;47.25;18.63;;;;;;;-6.39;58.56;103348.28;6273690;22;20027;-71
2024/01/09 10:53:40;;;;;;;47.92;17.85;;;;;;;-6.93;60.03;103349.59;6273529;22;20016;-71
2024/01/09 10:56:09;;;;;;;52.70;17.67;;;;;;;-6.84;60.20;103344.53;6273386;22;20399;-71
2024/01/09 10:58:36;;;;;;;49.53;18.65;;;;;;;-6.57;59.32;103346.09;6272984;22;20032;-71
2024/01/09 11:01:03;;;;;;;45.78;19.52;;;;;;;-6.78;59.84;103339.41;6273068;22;20097;-71
2024/01/09 11:03:32;;;;;;;45.38;17.85;;;;;;;-6.75;59.65;103350.06;6270293;22;20435;-73
2024/01/09 11:06:03;;;;;;;45.63;18.20;;;;;;;-6.49;59.63;103339.22;6264937;22;20023;-73
2024/01/09 11:08:34;;;;;;;60.45;20.20;;;;;;;-6.42;59.14;103341.16;6272727;22;20015;-72
2024/01/09 11:11:04;;;;;;;49.85;18.95;;;;;;;-6.47;58.91;103334.91;6273770;22;20126;-74